createdAt,value
2023-03-20T10:22:32.641Z,956.15
2023-03-20T10:23:32.516Z,955.37
2023-03-20T10:24:32.628Z,955.42
2023-03-20T10:25:32.672Z,955.23
2023-03-20T10:26:32.603Z,955.01
2023-03-20T10:27:32.536Z,954.96
2023-03-20T10:28:32.704Z,953.82
2023-03-20T10:29:32.705Z,954.35
2023-03-20T10:30:32.753Z,954.57
2023-03-20T10:31:32.694Z,954.49
2023-03-20T10:32:33.022Z,954.23
2023-03-20T10:33:32.676Z,954.91
2023-03-20T10:34:32.714Z,954.01
2023-03-20T10:35:32.742Z,954.20
2023-03-20T10:36:32.787Z,954.71
2023-03-20T10:37:32.646Z,955.25
2023-03-20T10:38:32.790Z,954.34
2023-03-20T10:39:32.678Z,955.02
2023-03-20T10:40:32.663Z,954.64
2023-03-20T10:41:32.670Z,955.35
2023-03-20T10:42:32.683Z,955.25
2023-03-20T10:43:32.658Z,954.62
2023-03-20T10:44:33.156Z,954.26
2023-03-20T10:45:32.717Z,954.78
2023-03-20T10:46:32.724Z,954.49
2023-03-20T10:47:32.678Z,954.45
2023-03-20T10:48:35.540Z,953.29
2023-03-20T10:49:33.508Z,952.88
2023-03-20T10:50:35.092Z,952.99
2023-03-20T10:51:32.615Z,953.04
2023-03-20T10:52:34.346Z,953.20
2023-03-20T10:53:32.691Z,953.57
2023-03-20T10:54:35.259Z,952.37
2023-03-20T10:55:32.848Z,952.10
2023-03-20T10:56:32.814Z,953.61
2023-03-20T10:57:32.858Z,952.78
2023-03-20T10:58:35.010Z,952.03
2023-03-20T10:59:32.911Z,951.95
2023-03-20T11:00:32.909Z,952.15
2023-03-20T11:01:35.633Z,952.02
2023-03-20T11:02:33.147Z,952.03
2023-03-20T11:03:33.004Z,952.82
2023-03-20T11:04:33.236Z,952.09
2023-03-20T11:05:35.782Z,951.71
2023-03-20T11:06:33.391Z,951.92
2023-03-20T11:07:33.580Z,952.10
2023-03-20T11:08:33.252Z,951.99
2023-03-20T11:09:38.081Z,951.54
2023-03-20T11:10:33.621Z,951.91
2023-03-20T11:11:33.340Z,951.58
2023-03-20T11:12:36.027Z,952.35
2023-03-20T11:13:36.155Z,952.46
2023-03-20T11:14:33.038Z,952.48
2023-03-20T11:15:36.978Z,952.29
2023-03-20T11:16:33.801Z,952.70
2023-03-20T11:17:36.429Z,953.12
2023-03-20T11:18:37.990Z,953.26
2023-03-20T11:19:33.376Z,953.66
2023-03-20T11:20:38.071Z,954.20
2023-03-20T11:21:38.018Z,954.68
2023-03-20T11:22:33.253Z,955.59
2023-03-20T11:23:36.786Z,955.58
2023-03-20T11:24:42.421Z,956.10
2023-03-20T11:25:36.449Z,956.16
2023-03-20T11:26:52.399Z,956.38
2023-03-20T11:27:44.593Z,956.48
2023-03-20T11:28:36.800Z,956.77
2023-03-20T11:29:38.948Z,956.95
2023-03-20T11:30:36.416Z,956.93
2023-03-20T11:31:33.168Z,956.67
2023-03-20T11:32:35.932Z,957.05
2023-03-20T11:33:33.082Z,957.22
2023-03-20T11:34:33.290Z,957.12
2023-03-20T11:35:33.314Z,957.06
2023-03-20T11:36:35.401Z,956.66
2023-03-20T11:37:36.214Z,956.41
2023-03-20T11:38:33.376Z,956.98
2023-03-20T11:39:33.205Z,956.67
2023-03-20T11:40:33.337Z,957.02
2023-03-20T11:41:33.112Z,956.91
2023-03-20T11:42:37.349Z,956.90
2023-03-20T11:43:33.296Z,956.65
2023-03-20T11:44:33.169Z,957.30
2023-03-20T11:45:33.405Z,957.52
2023-03-20T11:46:33.031Z,957.03
2023-03-20T11:47:33.541Z,957.44
2023-03-20T11:48:33.446Z,957.58
2023-03-20T11:49:38.770Z,957.03
2023-03-20T11:50:33.418Z,957.26
2023-03-20T11:51:38.220Z,957.20
2023-03-20T11:52:33.437Z,957.30
2023-03-20T11:53:33.217Z,957.56
2023-03-20T11:54:33.104Z,957.34
2023-03-20T11:55:33.226Z,957.38
2023-03-20T11:56:34.716Z,957.53
2023-03-20T11:57:33.049Z,957.28
2023-03-20T11:58:33.675Z,957.32
2023-03-20T11:59:33.910Z,957.34
2023-03-20T12:00:35.460Z,957.64
2023-03-20T12:01:35.185Z,957.73
2023-03-20T12:02:33.285Z,957.36
2023-03-20T12:03:38.920Z,957.54
2023-03-20T12:04:33.030Z,957.22
2023-03-20T12:05:33.867Z,957.35
2023-03-20T12:06:33.209Z,957.23
2023-03-20T12:07:33.213Z,957.66
2023-03-20T12:08:33.084Z,957.75
2023-03-20T12:09:33.186Z,957.56
2023-03-20T12:10:36.027Z,957.55
2023-03-20T12:11:33.273Z,957.69
2023-03-20T12:12:33.144Z,957.76
2023-03-20T12:13:33.155Z,957.92
2023-03-20T12:14:37.759Z,958.10
2023-03-20T12:15:33.298Z,958.43
2023-03-20T12:16:35.874Z,957.96
2023-03-20T12:17:33.126Z,957.63
2023-03-20T12:18:35.471Z,958.03
2023-03-20T12:19:33.209Z,958.04
2023-03-20T12:20:33.111Z,957.91
2023-03-20T12:21:33.162Z,958.38
2023-03-20T12:22:38.730Z,958.18
2023-03-20T12:23:33.164Z,958.54
2023-03-20T12:24:33.165Z,958.23
2023-03-20T12:25:33.816Z,958.47
2023-03-20T12:26:34.462Z,958.41
2023-03-20T12:27:34.805Z,959.15
2023-03-20T12:28:33.216Z,959.18
2023-03-20T12:29:39.791Z,959.36
2023-03-20T12:30:39.472Z,959.31
2023-03-20T12:31:33.395Z,959.64
